createdAt,value
2022-11-14T00:00:56.699Z,100473.00
2022-11-14T00:03:23.379Z,100466.13
2022-11-14T00:05:50.113Z,100479.44
2022-11-14T00:08:20.330Z,100483.00
2022-11-14T00:10:48.664Z,100486.84
2022-11-14T00:13:16.375Z,100478.09
2022-11-14T00:15:46.059Z,100483.72
2022-11-14T00:18:12.895Z,100474.56
2022-11-14T00:20:39.703Z,100480.28
2022-11-14T00:23:06.460Z,100485.91
2022-11-14T00:25:33.255Z,100489.78
2022-11-14T00:28:00.147Z,100485.47
2022-11-14T00:30:28.779Z,100471.75
2022-11-14T00:32:55.506Z,100487.56
2022-11-14T00:35:22.459Z,100482.78
2022-11-14T00:37:49.281Z,100473.59
2022-11-14T00:40:16.386Z,100473.81
2022-11-14T00:42:43.170Z,100487.16
2022-11-14T00:45:10.483Z,100475.25
2022-11-14T00:47:37.346Z,100491.09
2022-11-14T00:50:05.038Z,100471.31
2022-11-14T00:52:31.888Z,100480.25
2022-11-14T00:54:58.571Z,100493.41
2022-11-14T00:57:25.305Z,100486.63
2022-11-14T00:59:53.695Z,100489.00
2022-11-14T01:02:20.532Z,100473.59
2022-11-14T01:04:47.219Z,100473.97
2022-11-14T01:07:13.943Z,100470.34
2022-11-14T01:09:40.809Z,100474.19
2022-11-14T01:12:07.543Z,100465.03
2022-11-14T01:14:34.232Z,100474.94
2022-11-14T01:17:01.044Z,100468.56
2022-11-14T01:19:29.030Z,100486.81
2022-11-14T01:21:55.800Z,100474.63
2022-11-14T01:24:22.620Z,100481.63
2022-11-14T01:26:49.386Z,100496.41
2022-11-14T01:29:16.159Z,100479.84
2022-11-14T01:31:42.942Z,100473.19
2022-11-14T01:34:10.041Z,100488.19
2022-11-14T01:36:36.770Z,100468.09
2022-11-14T01:39:04.112Z,100480.91
2022-11-14T01:41:30.863Z,100475.50
2022-11-14T01:43:57.616Z,100454.53
2022-11-14T01:46:29.448Z,100466.34
2022-11-14T01:49:01.343Z,100476.13
2022-11-14T01:51:36.906Z,100477.38
2022-11-14T01:54:08.715Z,100473.53
2022-11-14T01:56:43.474Z,100475.28
2022-11-14T01:59:14.449Z,100472.47
2022-11-14T02:01:50.359Z,100496.94
2022-11-14T02:04:27.881Z,100490.28
2022-11-14T02:06:59.281Z,100478.50
2022-11-14T02:09:28.119Z,100478.81
2022-11-14T02:11:58.791Z,100478.94
2022-11-14T02:14:27.355Z,100482.38
2022-11-14T02:17:14.842Z,100465.78
2022-11-14T02:19:46.236Z,100468.59
2022-11-14T02:22:13.314Z,100469.59
2022-11-14T02:24:40.112Z,100465.63
2022-11-14T02:27:08.780Z,100460.44
2022-11-14T02:29:36.064Z,100464.31
2022-11-14T02:32:08.080Z,100450.19
2022-11-14T02:34:37.354Z,100468.44
2022-11-14T02:37:04.259Z,100476.75
2022-11-14T02:39:31.079Z,100473.31
2022-11-14T02:41:57.867Z,100480.59
2022-11-14T02:44:24.654Z,100474.72
2022-11-14T02:46:51.479Z,100476.59
2022-11-14T02:49:18.372Z,100470.44
2022-11-14T02:51:45.121Z,100468.69
2022-11-14T02:54:11.867Z,100483.59
2022-11-14T02:56:38.794Z,100484.25
2022-11-14T02:59:05.493Z,100459.97
2022-11-14T03:01:32.213Z,100471.34
2022-11-14T03:03:59.108Z,100459.69
2022-11-14T03:06:25.910Z,100467.78
2022-11-14T03:08:52.620Z,100464.88
2022-11-14T03:11:19.417Z,100473.63
2022-11-14T03:13:46.106Z,100482.78
2022-11-14T03:16:14.342Z,100475.38
2022-11-14T03:18:41.435Z,100492.50
2022-11-14T03:21:10.144Z,100489.50
2022-11-14T03:23:37.410Z,100493.13
2022-11-14T03:26:06.946Z,100482.75
2022-11-14T03:28:33.854Z,100479.78
2022-11-14T03:31:00.713Z,100496.06
2022-11-14T03:33:27.711Z,100483.97
2022-11-14T03:35:55.147Z,100491.69
2022-11-14T03:38:24.645Z,100491.41
2022-11-14T03:40:52.098Z,100482.75
2022-11-14T03:43:20.644Z,100487.31
2022-11-14T03:45:48.191Z,100466.94
2022-11-14T03:48:15.229Z,100472.66
2022-11-14T03:50:43.784Z,100457.56
2022-11-14T03:53:11.482Z,100471.75
2022-11-14T03:55:39.120Z,100470.06
2022-11-14T03:58:05.974Z,100472.25
2022-11-14T04:00:32.786Z,100466.41
2022-11-14T04:02:59.590Z,100486.50
2022-11-14T04:05:26.384Z,100488.19
2022-11-14T04:07:53.140Z,100486.84
2022-11-14T04:10:19.980Z,100471.22
2022-11-14T04:12:53.851Z,100481.41
2022-11-14T04:15:21.280Z,100486.41
2022-11-14T04:17:49.584Z,100487.56
2022-11-14T04:20:16.589Z,100489.31
2022-11-14T04:22:43.481Z,100495.47
2022-11-14T04:25:10.437Z,100485.44
2022-11-14T04:27:37.210Z,100478.16
2022-11-14T04:30:05.594Z,100484.22
2022-11-14T04:32:32.326Z,100493.59
2022-11-14T04:34:59.059Z,100497.94
2022-11-14T04:37:25.836Z,100493.81
2022-11-14T04:39:52.696Z,100473.78
2022-11-14T04:42:19.482Z,100494.09
2022-11-14T04:44:46.356Z,100489.50
2022-11-14T04:47:13.082Z,100499.69
2022-11-14T04:49:39.791Z,100484.75
2022-11-14T04:52:06.667Z,100494.63
2022-11-14T04:54:33.407Z,100500.00
2022-11-14T04:57:00.177Z,100505.72
2022-11-14T04:59:26.989Z,100503.53
2022-11-14T05:01:53.800Z,100495.50
2022-11-14T05:04:20.558Z,100503.00
2022-11-14T05:06:47.419Z,100494.66
2022-11-14T05:09:14.211Z,100511.34
2022-11-14T05:11:41.063Z,100505.28
2022-11-14T05:14:07.881Z,100504.03
2022-11-14T05:16:34.570Z,100518.47
2022-11-14T05:19:01.279Z,100514.31
2022-11-14T05:21:28.110Z,100506.72
2022-11-14T05:23:54.803Z,100507.50
2022-11-14T05:26:21.518Z,100509.69
2022-11-14T05:28:48.321Z,100503.91
2022-11-14T05:31:18.850Z,100511.91
2022-11-14T05:33:47.141Z,100481.75
2022-11-14T05:36:16.222Z,100512.31
2022-11-14T05:38:43.525Z,100515.44
2022-11-14T05:41:12.872Z,100500.44
2022-11-14T05:43:40.443Z,100511.28
2022-11-14T05:46:10.193Z,100513.47
2022-11-14T05:48:37.883Z,100512.13
2022-11-14T05:51:06.501Z,100500.66
2022-11-14T05:53:34.149Z,100496.69
2022-11-14T05:56:04.740Z,100487.66
2022-11-14T05:58:33.195Z,100498.91
2022-11-14T06:01:11.945Z,100482.66
2022-11-14T06:03:44.355Z,100496.59
2022-11-14T06:06:13.968Z,100502.81
2022-11-14T06:08:41.239Z,100505.34
2022-11-14T06:11:14.463Z,100504.47
2022-11-14T06:13:41.783Z,100515.09
2022-11-14T06:16:12.008Z,100503.38
2022-11-14T06:18:39.046Z,100506.66
2022-11-14T06:21:11.464Z,100503.00
2022-11-14T06:23:38.557Z,100511.78
2022-11-14T06:26:07.825Z,100505.13
2022-11-14T06:28:34.895Z,100517.00
2022-11-14T06:31:04.442Z,100520.34
2022-11-14T06:33:35.121Z,100528.53
2022-11-14T06:36:05.861Z,100522.19
2022-11-14T06:38:34.654Z,100528.19
2022-11-14T06:41:17.711Z,100513.66
2022-11-14T06:43:49.333Z,100525.19
2022-11-14T06:46:19.056Z,100521.59
2022-11-14T06:48:46.985Z,100522.06
2022-11-14T06:51:15.121Z,100530.50
2022-11-14T06:53:42.742Z,100538.09
2022-11-14T06:56:11.920Z,100523.97
2022-11-14T06:58:41.925Z,100518.28
2022-11-14T07:01:13.314Z,100532.06
2022-11-14T07:03:41.412Z,100533.34
2022-11-14T07:06:09.829Z,100537.09
2022-11-14T07:08:36.784Z,100537.13
2022-11-14T07:11:09.001Z,100539.09
2022-11-14T07:13:36.150Z,100549.25
2022-11-14T07:16:03.845Z,100541.50
2022-11-14T07:18:33.862Z,100550.28
2022-11-14T07:21:02.579Z,100551.50
2022-11-14T07:23:30.794Z,100555.22
2022-11-14T07:26:07.030Z,100545.72
2022-11-14T07:28:39.359Z,100552.44
2022-11-14T07:31:12.587Z,100562.84
2022-11-14T07:33:40.098Z,100567.94
2022-11-14T07:36:07.805Z,100562.59
2022-11-14T07:38:36.654Z,100574.06
2022-11-14T07:41:06.957Z,100572.97
2022-11-14T07:43:33.815Z,100579.13
2022-11-14T07:46:13.474Z,100578.53
2022-11-14T07:48:40.252Z,100594.16
2022-11-14T07:51:10.351Z,100589.28
2022-11-14T07:53:37.047Z,100574.84
2022-11-14T07:56:11.370Z,100570.91
2022-11-14T07:58:39.705Z,100592.63
2022-11-14T08:01:09.868Z,100589.13
2022-11-14T08:03:39.698Z,100601.16
2022-11-14T08:06:12.740Z,100595.56
2022-11-14T08:08:39.635Z,100598.09
2022-11-14T08:11:07.142Z,100593.91
2022-11-14T08:13:34.114Z,100595.88
2022-11-14T08:16:12.917Z,100585.31
2022-11-14T08:18:41.179Z,100582.47
2022-11-14T08:21:08.429Z,100605.06
2022-11-14T08:23:35.128Z,100589.81
2022-11-14T08:26:02.051Z,100601.75
2022-11-14T08:28:29.003Z,100559.34
2022-11-14T08:31:01.351Z,100600.28
2022-11-14T08:33:28.498Z,100596.13
2022-11-14T08:35:55.677Z,100606.75
2022-11-14T08:38:22.373Z,100614.31
2022-11-14T08:40:49.167Z,100610.06
2022-11-14T08:43:16.017Z,100599.91
2022-11-14T08:45:42.765Z,100625.16
2022-11-14T08:48:11.635Z,100618.31
2022-11-14T08:50:38.315Z,100615.81
2022-11-14T08:53:05.054Z,100623.94
2022-11-14T08:55:31.865Z,100612.47
2022-11-14T08:57:58.624Z,100618.38
2022-11-14T09:00:25.397Z,100635.91
2022-11-14T09:02:52.335Z,100633.22
2022-11-14T09:05:19.083Z,100634.31
2022-11-14T09:07:45.804Z,100640.97
2022-11-14T09:10:12.559Z,100637.16
2022-11-14T09:12:39.299Z,100643.56
2022-11-14T09:15:06.756Z,100651.16
2022-11-14T09:17:33.888Z,100655.03
2022-11-14T09:20:00.701Z,100655.81
2022-11-14T09:22:27.410Z,100667.75
2022-11-14T09:24:54.329Z,100658.03
2022-11-14T09:27:21.652Z,100664.50
2022-11-14T09:29:48.358Z,100657.53
2022-11-14T09:32:15.173Z,100639.81
2022-11-14T09:34:44.954Z,100658.69
2022-11-14T09:37:11.717Z,100657.13
2022-11-14T09:39:40.897Z,100662.50
2022-11-14T09:42:32.823Z,100648.25
2022-11-14T09:45:06.529Z,100654.19
2022-11-14T09:47:54.781Z,100666.25
2022-11-14T09:50:46.650Z,100653.19
2022-11-14T09:53:34.623Z,100653.41
2022-11-14T09:56:01.848Z,100642.63
2022-11-14T09:58:29.193Z,100637.50
2022-11-14T10:01:09.727Z,100636.59
2022-11-14T10:04:05.834Z,100643.91
2022-11-14T10:07:04.548Z,100644.16
2022-11-14T10:09:52.521Z,100640.56
2022-11-14T10:12:34.637Z,100631.22
2022-11-14T10:15:10.254Z,100638.69
2022-11-14T10:17:45.345Z,100637.88
2022-11-14T10:20:27.289Z,100641.53
2022-11-14T10:23:22.105Z,100637.25
2022-11-14T10:25:54.850Z,100637.75
2022-11-14T10:28:40.061Z,100634.44
2022-11-14T10:31:37.316Z,100643.91
2022-11-14T10:34:29.248Z,100628.47
2022-11-14T10:37:17.456Z,100636.13
2022-11-14T10:39:44.111Z,100637.56
2022-11-14T10:42:35.284Z,100630.31
2022-11-14T10:45:10.940Z,100636.19
2022-11-14T10:47:43.973Z,100637.75
2022-11-14T10:50:22.136Z,100639.03
2022-11-14T10:52:54.964Z,100628.84
2022-11-14T10:55:32.048Z,100646.63
2022-11-14T10:58:11.268Z,100630.41
2022-11-14T11:00:38.041Z,100638.72
2022-11-14T11:03:04.800Z,100625.88
2022-11-14T11:05:31.596Z,100617.53
2022-11-14T11:11:30.970Z,100621.28
2022-11-14T11:14:01.119Z,100613.97
2022-11-14T11:16:29.765Z,100612.47
2022-11-14T11:19:35.215Z,100620.84
2022-11-14T11:22:02.216Z,100636.00
2022-11-14T11:24:34.178Z,100632.03
2022-11-14T11:27:19.298Z,100631.84
2022-11-14T11:29:46.999Z,100632.19
2022-11-14T11:32:26.298Z,100634.41
2022-11-14T11:34:54.290Z,100638.66
2022-11-14T11:37:23.518Z,100643.25
2022-11-14T11:39:55.409Z,100636.63
2022-11-14T11:43:23.606Z,100642.06
2022-11-14T11:45:22.108Z,100636.81
2022-11-14T11:48:01.813Z,100631.34
2022-11-14T11:50:30.269Z,100630.00
2022-11-14T11:53:29.739Z,100627.16
2022-11-14T11:56:04.693Z,100616.94
2022-11-14T11:58:51.609Z,100611.78
2022-11-14T12:01:19.925Z,100616.81
2022-11-14T12:03:53.106Z,100604.47
2022-11-14T12:06:27.613Z,100619.25
2022-11-14T12:09:06.814Z,100606.31
2022-11-14T12:11:38.034Z,100612.00
2022-11-14T12:14:29.330Z,100600.34
2022-11-14T12:17:08.232Z,100605.00
2022-11-14T12:19:52.739Z,100596.31
2022-11-14T12:22:38.435Z,100593.84
2022-11-14T12:25:23.431Z,100587.34
2022-11-14T12:28:27.201Z,100586.50
2022-11-14T12:30:59.144Z,100560.72
2022-11-14T12:33:30.173Z,100582.22
2022-11-14T12:36:01.073Z,100563.94
2022-11-14T12:38:40.756Z,100542.72
2022-11-14T12:41:08.574Z,100564.97
2022-11-14T12:43:39.149Z,100549.47
2022-11-14T12:46:09.437Z,100557.25
2022-11-14T12:48:41.798Z,100557.44
2022-11-14T12:51:46.835Z,100547.09
2022-11-14T12:54:43.718Z,100536.97
2022-11-14T12:57:39.018Z,100537.06
2022-11-14T13:00:09.115Z,100541.91
2022-11-14T13:03:00.645Z,100550.31
2022-11-14T13:05:46.826Z,100547.88
2022-11-14T13:08:28.853Z,100548.03
2022-11-14T13:10:55.576Z,100556.41
2022-11-14T13:13:42.151Z,100548.59
2022-11-14T13:16:43.077Z,100544.44
2022-11-14T13:19:39.377Z,100538.47
2022-11-14T13:22:12.257Z,100546.78
2022-11-14T13:25:04.295Z,100540.47
2022-11-14T13:28:05.215Z,100531.84
2022-11-14T13:30:40.177Z,100531.16
2022-11-14T13:33:07.728Z,100518.69
2022-11-14T13:36:05.422Z,100529.16
2022-11-14T13:38:48.965Z,100527.97
2022-11-14T13:41:54.203Z,100518.16
2022-11-14T13:44:53.588Z,100524.19
2022-11-14T13:47:47.018Z,100521.50
2022-11-14T13:50:25.141Z,100517.34
2022-11-14T13:52:52.421Z,100518.69
2022-11-14T13:55:31.275Z,100514.50
2022-11-14T13:58:29.853Z,100509.88
2022-11-14T14:01:41.033Z,100514.50
2022-11-14T14:04:29.120Z,100502.72
2022-11-14T14:07:01.666Z,100506.72
2022-11-14T14:10:01.729Z,100496.56
2022-11-14T14:12:51.226Z,100500.22
2022-11-14T14:15:29.854Z,100490.91
2022-11-14T14:18:16.720Z,100475.44
2022-11-14T14:21:11.816Z,100479.94
2022-11-14T14:24:26.175Z,100482.59
2022-11-14T14:26:55.880Z,100493.75
2022-11-14T14:29:38.537Z,100486.59
2022-11-14T14:32:20.117Z,100466.00
2022-11-14T14:34:46.840Z,100484.44
2022-11-14T14:37:19.141Z,100468.31
2022-11-14T14:40:02.624Z,100467.31
2022-11-14T14:42:40.978Z,100471.78
2022-11-14T14:45:20.519Z,100463.16
2022-11-14T14:47:50.124Z,100465.97
2022-11-14T14:50:21.793Z,100471.66
2022-11-14T14:53:02.420Z,100458.19
2022-11-14T14:55:32.909Z,100465.31
2022-11-14T14:58:26.707Z,100463.50
2022-11-14T15:01:09.903Z,100458.81
2022-11-14T15:03:39.966Z,100454.38
2022-11-14T15:06:18.061Z,100460.59
2022-11-14T15:08:46.185Z,100446.66
2022-11-14T15:11:15.028Z,100442.00
2022-11-14T15:13:43.343Z,100430.03
2022-11-14T15:16:11.272Z,100439.00
2022-11-14T15:18:38.652Z,100442.94
2022-11-14T15:21:09.690Z,100441.94
2022-11-14T15:23:39.763Z,100440.41
2022-11-14T15:26:12.859Z,100436.31
2022-11-14T15:28:39.623Z,100435.56
2022-11-14T15:31:06.907Z,100431.56
2022-11-14T15:33:35.534Z,100429.91
2022-11-14T15:36:14.983Z,100429.22
2022-11-14T15:39:02.690Z,100432.84
2022-11-14T15:41:33.070Z,100429.09
2022-11-14T15:44:03.433Z,100439.91
2022-11-14T15:46:46.225Z,100428.91
2022-11-14T15:49:25.667Z,100428.91
2022-11-14T15:51:56.559Z,100425.78
2022-11-14T15:54:34.974Z,100416.63
2022-11-14T15:57:11.932Z,100417.31
2022-11-14T15:59:39.061Z,100425.78
2022-11-14T16:02:22.302Z,100419.78
2022-11-14T16:04:51.997Z,100423.78
2022-11-14T16:07:19.941Z,100415.63
2022-11-14T16:09:46.861Z,100423.78
2022-11-14T16:12:13.990Z,100394.06
2022-11-14T16:14:41.009Z,100413.16
2022-11-14T16:17:13.650Z,100411.34
2022-11-14T16:19:40.629Z,100415.63
2022-11-14T16:22:13.284Z,100401.00
2022-11-14T16:24:40.219Z,100408.66
2022-11-14T16:27:07.046Z,100417.16
2022-11-14T16:29:33.837Z,100407.34
2022-11-14T16:32:00.739Z,100407.16
2022-11-14T16:34:27.691Z,100407.47
2022-11-14T16:37:00.055Z,100398.88
2022-11-14T16:39:27.644Z,100405.22
2022-11-14T16:42:00.645Z,100400.56
2022-11-14T16:44:27.633Z,100383.13
2022-11-14T16:46:55.484Z,100407.53
2022-11-14T16:49:22.231Z,100399.19
2022-11-14T16:51:50.768Z,100401.00
2022-11-14T16:54:19.719Z,100400.66
2022-11-14T16:56:47.414Z,100380.00
2022-11-14T16:59:14.676Z,100401.91
2022-11-14T17:01:42.126Z,100391.53
2022-11-14T17:04:08.911Z,100403.81
2022-11-14T17:06:35.751Z,100408.16
2022-11-14T17:09:02.619Z,100396.53
2022-11-14T17:11:29.522Z,100388.25
2022-11-14T17:13:57.147Z,100390.91
2022-11-14T17:16:24.568Z,100385.72
2022-11-14T17:18:54.249Z,100385.47
2022-11-14T17:21:22.036Z,100381.50
2022-11-14T17:23:57.043Z,100372.47
2022-11-14T17:26:24.177Z,100376.00
2022-11-14T17:28:50.964Z,100391.47
2022-11-14T17:31:17.917Z,100385.16
2022-11-14T17:33:54.093Z,100383.38
2022-11-14T17:36:23.867Z,100383.38
2022-11-14T17:38:50.681Z,100389.63
2022-11-14T17:41:18.401Z,100389.72
2022-11-14T17:43:45.349Z,100388.91
2022-11-14T17:46:15.941Z,100399.91
2022-11-14T17:48:44.132Z,100396.47
2022-11-14T17:51:13.218Z,100388.97
2022-11-14T17:53:40.306Z,100391.66
2022-11-14T17:56:08.687Z,100370.53
2022-11-14T17:58:35.572Z,100392.50
2022-11-14T18:01:02.376Z,100396.34
2022-11-14T18:03:29.942Z,100371.13
2022-11-14T18:06:10.635Z,100381.09
2022-11-14T18:08:38.137Z,100373.03
2022-11-14T18:11:07.289Z,100396.41
2022-11-14T18:13:34.789Z,100397.75
2022-11-14T18:16:03.374Z,100383.47
2022-11-14T18:18:34.904Z,100375.38
2022-11-14T18:21:14.332Z,100387.13
2022-11-14T18:23:41.290Z,100394.66
2022-11-14T18:26:20.135Z,100378.59
2022-11-14T18:28:46.832Z,100398.88
2022-11-14T18:31:14.006Z,100380.13
2022-11-14T18:33:41.801Z,100381.34
2022-11-14T18:36:11.747Z,100378.66
2022-11-14T18:38:38.580Z,100376.16
2022-11-14T18:41:09.833Z,100378.84
2022-11-14T18:43:36.795Z,100371.56
2022-11-14T18:46:12.236Z,100382.81
2022-11-14T18:48:40.357Z,100382.81
2022-11-14T18:51:11.759Z,100390.31
2022-11-14T18:53:38.609Z,100390.00
2022-11-14T18:56:07.174Z,100390.50
2022-11-14T18:58:34.100Z,100352.44
2022-11-14T19:01:40.658Z,100378.53
2022-11-14T19:04:10.070Z,100377.19
2022-11-14T19:06:39.101Z,100379.06
2022-11-14T19:09:11.320Z,100398.44
2022-11-14T19:11:57.190Z,100398.78
2022-11-14T19:14:24.008Z,100384.41
2022-11-14T19:16:50.724Z,100390.38
2022-11-14T19:19:17.495Z,100373.47
2022-11-14T19:21:44.406Z,100372.16
2022-11-14T19:24:11.201Z,100368.44
2022-11-14T19:26:37.986Z,100380.22
2022-11-14T19:29:07.833Z,100375.84
2022-11-14T19:31:34.554Z,100386.09
2022-11-14T19:34:01.419Z,100365.84
2022-11-14T19:36:57.706Z,100349.94
2022-11-14T19:39:15.456Z,100348.97
2022-11-14T19:41:42.238Z,100336.69
2022-11-14T19:44:09.013Z,100350.63
2022-11-14T19:46:36.922Z,100348.97
2022-11-14T19:49:04.476Z,100328.75
2022-11-14T19:51:32.953Z,100339.38
2022-11-14T19:54:03.100Z,100355.09
2022-11-14T19:56:29.785Z,100339.81
2022-11-14T19:58:57.359Z,100337.38
2022-11-14T20:01:28.557Z,100328.06
2022-11-14T20:04:00.912Z,100328.34
2022-11-14T20:06:34.286Z,100336.03
2022-11-14T20:09:05.574Z,100331.75
2022-11-14T20:11:32.995Z,100317.81
2022-11-14T20:14:01.279Z,100322.81
2022-11-14T20:16:30.934Z,100310.06
2022-11-14T20:19:00.671Z,100313.88
2022-11-14T20:21:30.283Z,100327.06
2022-11-14T20:23:57.212Z,100331.22
2022-11-14T20:26:24.186Z,100320.97
2022-11-14T20:28:52.967Z,100333.25
2022-11-14T20:31:24.866Z,100322.66
2022-11-14T20:33:53.468Z,100298.44
2022-11-14T20:36:24.063Z,100320.50
2022-11-14T20:38:52.237Z,100313.31
2022-11-14T20:41:20.070Z,100330.41
2022-11-14T20:43:47.246Z,100302.53
2022-11-14T20:46:16.772Z,100300.59
2022-11-14T20:48:44.318Z,100314.97
2022-11-14T20:51:14.406Z,100313.50
2022-11-14T20:53:41.430Z,100305.50
2022-11-14T20:56:09.202Z,100305.63
2022-11-14T20:58:36.445Z,100307.13
2022-11-14T21:01:04.117Z,100285.06
2022-11-14T21:03:31.450Z,100286.91
2022-11-14T21:06:01.400Z,100290.44
2022-11-14T21:08:29.298Z,100310.63
2022-11-14T21:11:02.335Z,100297.34
2022-11-14T21:13:48.109Z,100297.97
2022-11-14T21:16:19.349Z,100292.50
2022-11-14T21:18:48.105Z,100309.88
2022-11-14T21:21:16.791Z,100290.69
2022-11-14T21:23:46.579Z,100305.25
2022-11-14T21:26:23.949Z,100297.97
2022-11-14T21:28:54.083Z,100312.13
2022-11-14T21:31:22.659Z,100303.78
2022-11-14T21:33:51.259Z,100303.59
2022-11-14T21:39:06.815Z,100294.66
2022-11-14T21:41:33.685Z,100288.78
2022-11-14T21:44:02.958Z,100295.91
2022-11-14T21:46:29.989Z,100299.47
2022-11-14T21:48:57.561Z,100290.72
2022-11-14T21:51:29.162Z,100283.50
2022-11-14T21:54:02.971Z,100288.47
2022-11-14T21:56:31.957Z,100281.56
2022-11-14T21:59:15.766Z,100280.75
2022-11-14T22:02:07.177Z,100271.47
2022-11-14T22:04:34.855Z,100282.03
2022-11-14T22:07:03.103Z,100270.97
2022-11-14T22:09:30.510Z,100251.28
2022-11-14T22:11:57.405Z,100245.56
2022-11-14T22:14:24.471Z,100257.16
2022-11-14T22:16:51.310Z,100249.41
2022-11-14T22:19:19.111Z,100252.38
2022-11-14T22:21:46.041Z,100224.69
2022-11-14T22:24:12.796Z,100243.41
2022-11-14T22:26:40.674Z,100238.28
2022-11-14T22:29:08.469Z,100222.97
2022-11-14T22:31:35.350Z,100244.59
2022-11-14T22:34:02.364Z,100226.06
2022-11-14T22:36:29.484Z,100225.44
2022-11-14T22:38:57.118Z,100227.72
2022-11-14T22:41:32.748Z,100207.22
2022-11-14T22:44:00.913Z,100207.81
2022-11-14T22:46:27.854Z,100187.97
2022-11-14T22:48:55.154Z,100203.38
2022-11-14T22:51:24.162Z,100206.53
2022-11-14T22:54:01.139Z,100208.56
2022-11-14T22:56:29.494Z,100200.66
2022-11-14T22:58:58.882Z,100206.13
2022-11-14T23:01:27.968Z,100209.47
2022-11-14T23:03:57.267Z,100198.03
2022-11-14T23:06:25.022Z,100209.50
2022-11-14T23:08:52.575Z,100185.00
2022-11-14T23:11:22.921Z,100195.97
2022-11-14T23:13:52.394Z,100215.84
2022-11-14T23:16:24.906Z,100189.34
2022-11-14T23:18:54.916Z,100195.50
2022-11-14T23:21:25.024Z,100192.22
2022-11-14T23:23:55.372Z,100187.16
2022-11-14T23:26:23.175Z,100178.28
2022-11-14T23:28:49.966Z,100196.88
2022-11-14T23:31:19.568Z,100206.25
2022-11-14T23:33:47.569Z,100196.88
2022-11-14T23:36:14.578Z,100207.13
2022-11-14T23:38:42.327Z,100204.13
2022-11-14T23:41:18.562Z,100167.91
2022-11-14T23:43:46.116Z,100189.50
2022-11-14T23:46:13.675Z,100185.53
2022-11-14T23:48:40.652Z,100187.44
2022-11-14T23:51:07.716Z,100188.16
2022-11-14T23:53:34.628Z,100162.47
2022-11-14T23:56:02.413Z,100168.66
2022-11-14T23:58:30.539Z,100184.25
